Campo Alto, Texas
Current Conditions -  °F | °C
As of 11:53 PM on Saturday 25 Oct 2014 (Local Time) from KMFE Reporting Station
Clear Clear  
Wind Chill: 69°   Ceiling: Unl
Heat Index: 69°   Visibility: 10mi
Dew Point: 66°   Wind: 3mph
Humidity: 90%   Direction: 150°SSE
Pressure: 30.11"   Gusts: NA
Location:  26.2003°N, 98.1112°W
Report Text: KMFE 260453Z AUTO 15003KT 10SM CLR 21/19 A3011 RMK AO2 SLP194 T02060189
Loading
Personal Weather Stations






























Interactive Weather Map
Tropical Storm Tracking
New forecast layout! Learn more

10-Day Weather Forecast

Advertisements
Track Severe Weather on mobile